createdAt,value
2023-03-29T00:02:05.652Z,95242.41
2023-03-29T00:04:35.629Z,95234.63
2023-03-29T00:07:06.140Z,95237.41
2023-03-29T00:09:36.410Z,95237.41
2023-03-29T00:12:06.332Z,95245.50
2023-03-29T00:14:35.403Z,95246.69
2023-03-29T00:17:06.558Z,95244.53
2023-03-29T00:19:36.932Z,95244.53
2023-03-29T00:22:06.935Z,95248.59
2023-03-29T00:24:36.443Z,95253.19
2023-03-29T00:27:05.872Z,95248.75
2023-03-29T00:29:35.151Z,95244.06
2023-03-29T00:32:05.689Z,95251.38
2023-03-29T00:34:37.410Z,95250.38
2023-03-29T00:37:10.053Z,95249.94
2023-03-29T00:39:42.261Z,95249.56
2023-03-29T00:42:14.507Z,95255.16
2023-03-29T00:45:02.137Z,95259.06
2023-03-29T00:47:39.506Z,95255.94
2023-03-29T00:50:14.524Z,95267.53
2023-03-29T00:52:46.604Z,95266.06
2023-03-29T00:55:21.909Z,95266.06
2023-03-29T00:57:52.918Z,95277.44
2023-03-29T01:00:26.939Z,95272.88
2023-03-29T01:03:01.065Z,95281.84
2023-03-29T01:05:33.707Z,95279.41
2023-03-29T01:08:07.485Z,95276.78
2023-03-29T01:10:41.091Z,95266.03
2023-03-29T01:13:13.421Z,95264.13
2023-03-29T01:15:46.447Z,95270.78
2023-03-29T01:18:23.019Z,95267.50
2023-03-29T01:21:12.737Z,95266.06
2023-03-29T01:24:11.994Z,95261.19
2023-03-29T01:26:49.126Z,95258.25
2023-03-29T01:29:25.930Z,95264.28
2023-03-29T01:31:59.562Z,95258.75
2023-03-29T01:34:36.923Z,95266.22
2023-03-29T01:37:12.032Z,95264.44
2023-03-29T01:39:41.463Z,95266.56
2023-03-29T01:42:18.750Z,95263.13
2023-03-29T01:44:57.052Z,95274.22
2023-03-29T01:47:33.588Z,95270.66
2023-03-29T01:50:12.817Z,95262.66
2023-03-29T01:52:48.394Z,95276.03
2023-03-29T01:55:23.258Z,95290.97
2023-03-29T01:57:55.058Z,95284.47
2023-03-29T02:00:29.798Z,95293.44
2023-03-29T02:03:04.722Z,95285.94
2023-03-29T02:05:35.206Z,95291.47
2023-03-29T02:08:07.895Z,95286.75
2023-03-29T02:10:38.197Z,95290.31
2023-03-29T02:13:08.021Z,95294.88
2023-03-29T02:15:39.399Z,95287.19
2023-03-29T02:18:08.676Z,95290.47
2023-03-29T02:20:41.697Z,95303.47
2023-03-29T02:23:18.321Z,95294.84
2023-03-29T02:25:50.523Z,95298.63
2023-03-29T02:28:21.854Z,95301.84
2023-03-29T02:31:00.102Z,95303.66
2023-03-29T02:33:37.165Z,95310.31
2023-03-29T02:36:14.137Z,95311.63
2023-03-29T02:38:43.428Z,95313.25
2023-03-29T02:41:13.273Z,95310.19
2023-03-29T02:43:44.067Z,95318.81
2023-03-29T02:46:16.028Z,95313.25
2023-03-29T02:48:46.981Z,95305.13
2023-03-29T02:51:20.473Z,95320.09
2023-03-29T02:53:54.601Z,95317.16
2023-03-29T02:56:23.736Z,95326.94
2023-03-29T02:58:52.732Z,95323.03
2023-03-29T03:01:24.050Z,95319.28
2023-03-29T03:03:53.981Z,95318.31
2023-03-29T03:06:24.329Z,95324.66
2023-03-29T03:08:53.458Z,95335.41
2023-03-29T03:11:24.180Z,95322.06
2023-03-29T03:13:53.256Z,95336.41
2023-03-29T03:16:24.071Z,95333.47
2023-03-29T03:18:55.129Z,95334.78
2023-03-29T03:21:24.820Z,95350.06
2023-03-29T03:23:55.060Z,95342.56
2023-03-29T03:26:25.939Z,95324.34
2023-03-29T03:28:55.334Z,95339.16
2023-03-29T03:31:54.021Z,95331.34
2023-03-29T03:34:42.000Z,95332.16
2023-03-29T03:37:12.522Z,95335.28
2023-03-29T03:39:42.269Z,95345.34
2023-03-29T03:42:12.643Z,95347.47
2023-03-29T03:44:45.149Z,95348.59
2023-03-29T03:47:33.415Z,95350.59
2023-03-29T03:50:15.715Z,95346.19
2023-03-29T03:52:44.926Z,95345.53
2023-03-29T03:55:14.746Z,95346.16
2023-03-29T03:57:49.475Z,95352.03
2023-03-29T04:00:21.594Z,95350.09
2023-03-29T04:03:11.193Z,95356.41
2023-03-29T04:05:41.595Z,95348.47
2023-03-29T04:08:11.852Z,95348.78
2023-03-29T04:11:17.017Z,95347.97
2023-03-29T04:13:46.278Z,95355.44
2023-03-29T04:16:29.435Z,95353.31
2023-03-29T04:19:07.066Z,95360.66
2023-03-29T04:21:36.201Z,95354.94
2023-03-29T04:24:05.402Z,95353.66
2023-03-29T04:26:37.546Z,95356.44
2023-03-29T04:29:17.014Z,95361.13
2023-03-29T04:31:52.409Z,95364.72
2023-03-29T04:34:40.917Z,95354.13
2023-03-29T04:37:10.804Z,95355.59
2023-03-29T04:39:41.320Z,95363.41
2023-03-29T04:42:12.453Z,95357.91
2023-03-29T04:44:43.837Z,95370.59
2023-03-29T04:47:16.180Z,95363.59
2023-03-29T04:49:57.447Z,95379.06
2023-03-29T04:52:37.477Z,95369.28
2023-03-29T04:55:09.454Z,95384.75
2023-03-29T04:58:01.536Z,95385.56
2023-03-29T05:00:43.832Z,95381.16
2023-03-29T05:03:27.321Z,95392.66
2023-03-29T05:06:12.490Z,95396.88
2023-03-29T05:08:42.263Z,95383.69
2023-03-29T05:11:24.611Z,95390.81
2023-03-29T05:14:00.991Z,95396.91
2023-03-29T05:16:31.495Z,95403.59
2023-03-29T05:19:01.829Z,95395.94
2023-03-29T05:21:34.607Z,95412.63
2023-03-29T05:24:07.520Z,95416.13
2023-03-29T05:26:59.391Z,95408.72
2023-03-29T05:29:33.022Z,95426.44
2023-03-29T05:32:19.398Z,95422.09
2023-03-29T05:34:49.026Z,95420.56
2023-03-29T05:37:19.862Z,95427.75
2023-03-29T05:39:55.179Z,95425.91
2023-03-29T05:42:41.156Z,95430.28
2023-03-29T05:45:13.385Z,95422.22
2023-03-29T05:47:43.212Z,95436.50
2023-03-29T05:50:12.862Z,95420.91
2023-03-29T05:52:44.135Z,95439.28
2023-03-29T05:55:14.127Z,95432.38
2023-03-29T05:57:43.315Z,95439.94
2023-03-29T06:00:20.524Z,95431.56
2023-03-29T06:02:49.954Z,95426.19
2023-03-29T06:05:20.071Z,95441.09
2023-03-29T06:08:04.253Z,95459.50
2023-03-29T06:10:52.183Z,95449.97
2023-03-29T06:13:57.026Z,95433.09
2023-03-29T06:16:27.420Z,95459.53
2023-03-29T06:18:56.968Z,95458.75
2023-03-29T06:21:27.282Z,95447.72
2023-03-29T06:23:59.082Z,95454.16
2023-03-29T06:26:32.660Z,95460.84
2023-03-29T06:29:02.878Z,95468.31
2023-03-29T06:31:36.261Z,95465.56
2023-03-29T06:34:07.575Z,95461.38
2023-03-29T06:37:02.235Z,95462.53
2023-03-29T06:39:33.290Z,95466.34
2023-03-29T06:42:24.852Z,95476.88
2023-03-29T06:45:30.920Z,95475.34
2023-03-29T06:48:02.306Z,95472.53
2023-03-29T06:50:33.374Z,95467.88
2023-03-29T06:53:13.545Z,95487.16
2023-03-29T06:55:45.970Z,95473.88
2023-03-29T06:58:45.251Z,95481.09
2023-03-29T07:01:40.163Z,95484.09
2023-03-29T07:04:17.919Z,95472.97
2023-03-29T07:07:08.023Z,95482.72
2023-03-29T07:09:40.183Z,95480.50
2023-03-29T07:12:33.707Z,95473.69
2023-03-29T07:15:04.751Z,95491.59
2023-03-29T07:17:59.941Z,95502.78
2023-03-29T07:20:29.433Z,95485.78
2023-03-29T07:23:08.392Z,95489.16
2023-03-29T07:25:40.106Z,95497.75
2023-03-29T07:28:12.019Z,95493.94
2023-03-29T07:30:41.604Z,95481.94
2023-03-29T07:33:20.388Z,95488.56
2023-03-29T07:35:55.728Z,95494.09
2023-03-29T07:38:25.538Z,95489.06
2023-03-29T07:41:05.512Z,95484.50
2023-03-29T07:43:54.527Z,95495.56
2023-03-29T07:46:26.728Z,95477.56
2023-03-29T07:48:57.096Z,95483.75
2023-03-29T07:51:27.179Z,95491.56
2023-03-29T07:54:05.712Z,95499.00
2023-03-29T07:56:49.804Z,95486.63
2023-03-29T07:59:20.589Z,95492.16
2023-03-29T08:01:57.533Z,95492.88
2023-03-29T08:04:41.828Z,95505.22
2023-03-29T08:07:21.305Z,95501.53
2023-03-29T08:10:13.813Z,95497.63
2023-03-29T08:12:52.619Z,95511.59
2023-03-29T08:15:29.742Z,95505.38
2023-03-29T08:18:03.319Z,95500.91
2023-03-29T08:20:32.920Z,95501.53
2023-03-29T08:23:05.562Z,95494.66
2023-03-29T08:26:00.886Z,95483.28
2023-03-29T08:28:30.073Z,95480.47
2023-03-29T08:31:00.830Z,95477.34
2023-03-29T08:33:30.583Z,95469.97
2023-03-29T08:36:19.667Z,95467.56
2023-03-29T08:38:50.714Z,95456.63
2023-03-29T08:41:34.147Z,95476.28
2023-03-29T08:44:15.174Z,95454.66
2023-03-29T08:47:12.151Z,95455.66
2023-03-29T08:49:49.184Z,95442.16
2023-03-29T08:52:25.982Z,95437.09
2023-03-29T08:54:59.630Z,95452.47
2023-03-29T08:57:50.274Z,95447.78
2023-03-29T09:00:36.651Z,95448.25
2023-03-29T09:03:12.952Z,95439.13
2023-03-29T09:05:48.072Z,95449.88
2023-03-29T09:08:25.997Z,95439.13
2023-03-29T09:11:12.432Z,95444.53
2023-03-29T09:13:54.984Z,95445.28
2023-03-29T09:16:32.799Z,95447.50
2023-03-29T09:19:17.390Z,95441.03
2023-03-29T09:21:52.341Z,95439.66
2023-03-29T09:24:42.875Z,95444.56
2023-03-29T09:27:26.927Z,95430.38
2023-03-29T09:30:17.427Z,95458.34
2023-03-29T09:32:56.976Z,95450.03
2023-03-29T09:35:39.045Z,95456.69
2023-03-29T09:38:14.288Z,95461.09
2023-03-29T09:40:49.403Z,95462.13
2023-03-29T09:43:31.247Z,95455.72
2023-03-29T09:46:05.873Z,95457.97
2023-03-29T09:48:40.892Z,95460.28
2023-03-29T09:51:14.617Z,95456.03
2023-03-29T09:53:44.051Z,95464.09
2023-03-29T09:56:24.425Z,95460.78
2023-03-29T09:59:00.858Z,95453.97
2023-03-29T10:01:38.974Z,95436.88
2023-03-29T10:04:11.499Z,95446.41
2023-03-29T10:06:51.292Z,95457.03
2023-03-29T10:09:24.325Z,95443.88
2023-03-29T10:12:02.433Z,95454.59
2023-03-29T10:14:38.419Z,95443.44
2023-03-29T10:17:18.734Z,95450.00
2023-03-29T10:19:52.115Z,95452.28
2023-03-29T10:22:25.837Z,95446.91
2023-03-29T10:24:56.279Z,95443.44
2023-03-29T10:27:28.455Z,95456.31
2023-03-29T10:29:59.952Z,95444.59
2023-03-29T10:32:34.563Z,95459.63
2023-03-29T10:35:10.968Z,95449.19
2023-03-29T10:37:46.237Z,95447.53
2023-03-29T10:40:23.388Z,95435.16
2023-03-29T10:42:54.120Z,95450.81
2023-03-29T10:45:28.672Z,95436.41
2023-03-29T10:47:59.292Z,95420.50
2023-03-29T10:50:35.096Z,95439.78
2023-03-29T10:53:21.086Z,95434.25
2023-03-29T10:56:02.605Z,95430.38
2023-03-29T10:58:45.162Z,95425.06
2023-03-29T11:01:24.997Z,95432.34
2023-03-29T11:04:13.358Z,95421.06
2023-03-29T11:06:49.159Z,95418.75
2023-03-29T11:09:29.235Z,95408.63
2023-03-29T11:12:15.734Z,95410.03
2023-03-29T11:15:01.810Z,95405.38
2023-03-29T11:17:54.204Z,95410.16
2023-03-29T11:20:35.670Z,95406.63
2023-03-29T11:23:20.102Z,95405.00
2023-03-29T11:26:02.626Z,95403.97
2023-03-29T11:28:40.347Z,95392.28
2023-03-29T11:31:19.489Z,95398.75
2023-03-29T11:33:59.118Z,95398.88
2023-03-29T11:36:39.108Z,95400.28
2023-03-29T11:39:17.202Z,95398.00
2023-03-29T11:41:52.412Z,95401.06
2023-03-29T11:44:26.751Z,95404.00
2023-03-29T11:47:02.724Z,95392.22
2023-03-29T11:49:37.228Z,95408.56
2023-03-29T11:52:12.755Z,95407.50
2023-03-29T11:54:46.247Z,95405.50
2023-03-29T11:57:22.361Z,95394.63
2023-03-29T11:59:57.758Z,95408.66
2023-03-29T12:02:34.248Z,95386.81
2023-03-29T12:05:12.966Z,95398.66
2023-03-29T12:07:48.972Z,95406.25
2023-03-29T12:10:21.785Z,95400.44
2023-03-29T12:12:57.743Z,95393.34
2023-03-29T12:15:31.952Z,95388.50
2023-03-29T12:18:08.606Z,95389.56
2023-03-29T12:20:42.467Z,95383.66
2023-03-29T12:23:17.301Z,95379.00
2023-03-29T12:25:55.680Z,95391.16
2023-03-29T12:28:39.971Z,95396.06
2023-03-29T12:31:18.603Z,95378.50
2023-03-29T12:34:10.549Z,95395.91
2023-03-29T12:37:19.918Z,95385.50
2023-03-29T12:40:15.679Z,95383.34
2023-03-29T12:43:05.324Z,95395.47
2023-03-29T12:45:58.279Z,95383.38
2023-03-29T12:48:32.037Z,95392.22
2023-03-29T12:51:02.812Z,95384.09
2023-03-29T12:53:36.290Z,95388.28
2023-03-29T12:56:17.802Z,95368.88
2023-03-29T12:59:07.202Z,95374.13
2023-03-29T13:01:41.576Z,95357.34
2023-03-29T13:04:20.337Z,95383.63
2023-03-29T13:07:03.584Z,95377.63
2023-03-29T13:09:36.974Z,95385.22
2023-03-29T13:12:09.620Z,95373.91
2023-03-29T13:14:42.955Z,95363.38
2023-03-29T13:17:20.961Z,95362.34
2023-03-29T13:20:01.206Z,95360.09
2023-03-29T13:22:54.445Z,95365.16
2023-03-29T13:25:42.830Z,95357.28
2023-03-29T13:28:24.553Z,95362.00
2023-03-29T13:31:00.864Z,95365.78
2023-03-29T13:33:54.968Z,95369.50
2023-03-29T13:36:38.231Z,95359.91
2023-03-29T13:39:17.764Z,95355.84
2023-03-29T13:41:50.552Z,95352.63
2023-03-29T13:44:29.840Z,95346.72
2023-03-29T13:47:29.029Z,95348.56
2023-03-29T13:50:05.614Z,95351.03
2023-03-29T13:52:39.729Z,95350.66
2023-03-29T13:55:16.836Z,95352.50
2023-03-29T13:57:53.798Z,95350.50
2023-03-29T14:00:28.810Z,95376.06
2023-03-29T14:03:01.746Z,95372.97
2023-03-29T14:05:36.223Z,95363.28
2023-03-29T14:08:11.490Z,95374.25
2023-03-29T14:10:44.190Z,95380.09
2023-03-29T14:13:15.125Z,95384.19
2023-03-29T14:15:47.155Z,95373.03
2023-03-29T14:18:20.222Z,95375.94
2023-03-29T14:20:55.430Z,95378.59
2023-03-29T14:23:27.260Z,95374.28
2023-03-29T14:25:56.530Z,95376.03
2023-03-29T14:28:28.124Z,95379.53
2023-03-29T14:30:58.188Z,95376.84
2023-03-29T14:33:31.318Z,95374.13
2023-03-29T14:36:04.383Z,95379.84
2023-03-29T14:38:37.324Z,95375.56
2023-03-29T14:41:08.116Z,95376.91
2023-03-29T14:43:37.320Z,95374.47
2023-03-29T14:46:08.283Z,95373.09
2023-03-29T14:48:39.628Z,95368.84
2023-03-29T14:51:11.115Z,95372.94
2023-03-29T14:53:41.241Z,95385.69
2023-03-29T14:56:16.005Z,95379.63
2023-03-29T14:58:48.106Z,95377.41
2023-03-29T15:01:20.417Z,95380.53
2023-03-29T15:03:55.143Z,95386.75
2023-03-29T15:06:27.216Z,95379.38
2023-03-29T15:09:06.206Z,95382.09
2023-03-29T15:11:37.548Z,95377.88
2023-03-29T15:14:09.210Z,95385.75
2023-03-29T15:16:42.439Z,95382.84
2023-03-29T15:19:17.348Z,95371.34
2023-03-29T15:21:50.092Z,95380.06
2023-03-29T15:24:24.570Z,95382.78
2023-03-29T15:27:01.594Z,95395.97
2023-03-29T15:29:42.155Z,95376.78
2023-03-29T15:32:12.407Z,95386.31
2023-03-29T15:34:41.580Z,95377.38
2023-03-29T15:37:14.478Z,95386.50
2023-03-29T15:39:45.550Z,95378.41
2023-03-29T15:42:14.730Z,95381.44
2023-03-29T15:44:45.080Z,95387.09
2023-03-29T15:47:14.846Z,95379.41
2023-03-29T15:49:44.248Z,95388.69
2023-03-29T15:52:15.758Z,95387.69
2023-03-29T15:54:45.285Z,95379.16
2023-03-29T15:57:16.910Z,95386.22
2023-03-29T15:59:46.467Z,95381.59
2023-03-29T16:02:17.181Z,95380.19
2023-03-29T16:04:46.382Z,95378.75
2023-03-29T16:07:20.027Z,95387.03
2023-03-29T16:09:49.460Z,95382.03
2023-03-29T16:12:18.636Z,95394.13
2023-03-29T16:14:48.041Z,95400.06
2023-03-29T16:17:17.307Z,95396.59
2023-03-29T16:19:47.328Z,95390.97
2023-03-29T16:22:18.912Z,95393.81
2023-03-29T16:24:48.274Z,95398.88
2023-03-29T16:27:18.119Z,95394.66
2023-03-29T16:29:47.579Z,95401.34
2023-03-29T16:32:16.998Z,95398.38
2023-03-29T16:34:46.418Z,95404.41
2023-03-29T16:37:15.819Z,95408.47
2023-03-29T16:39:46.685Z,95407.69
2023-03-29T16:42:16.809Z,95404.88
2023-03-29T16:44:46.177Z,95408.13
2023-03-29T16:47:15.533Z,95400.22
2023-03-29T16:49:45.861Z,95403.66
2023-03-29T16:52:15.134Z,95409.13
2023-03-29T16:54:45.961Z,95407.91
2023-03-29T16:57:15.038Z,95408.72
2023-03-29T16:59:47.657Z,95403.66
2023-03-29T17:02:16.914Z,95406.50
2023-03-29T17:04:46.452Z,95410.34
2023-03-29T17:07:15.704Z,95410.34
2023-03-29T17:09:47.380Z,95418.03
2023-03-29T17:12:16.722Z,95410.97
2023-03-29T17:14:45.994Z,95411.97
2023-03-29T17:17:15.827Z,95413.59
2023-03-29T17:19:45.108Z,95422.72
2023-03-29T17:22:14.198Z,95429.00
2023-03-29T17:24:43.601Z,95423.13
2023-03-29T17:27:14.371Z,95430.22
2023-03-29T17:29:43.621Z,95433.88
2023-03-29T17:32:12.767Z,95440.53
2023-03-29T17:34:41.930Z,95433.84
2023-03-29T17:37:11.109Z,95437.72
2023-03-29T17:39:42.244Z,95439.75
2023-03-29T17:42:11.386Z,95439.75
2023-03-29T17:44:42.132Z,95440.56
2023-03-29T17:47:11.609Z,95443.19
2023-03-29T17:49:40.833Z,95440.16
2023-03-29T17:52:10.033Z,95446.44
2023-03-29T17:54:39.232Z,95452.50
2023-03-29T17:57:08.458Z,95451.09
2023-03-29T17:59:38.353Z,95451.06
2023-03-29T18:02:10.409Z,95447.84
2023-03-29T18:04:39.740Z,95452.91
2023-03-29T18:07:08.763Z,95454.69
2023-03-29T18:09:37.886Z,95454.50
2023-03-29T18:12:07.752Z,95455.31
2023-03-29T18:14:37.232Z,95461.78
2023-03-29T18:17:06.652Z,95463.19
2023-03-29T18:19:37.338Z,95450.03
2023-03-29T18:22:06.694Z,95463.16
2023-03-29T18:24:36.026Z,95466.00
2023-03-29T18:27:05.271Z,95464.38
2023-03-29T18:29:34.555Z,95457.09
2023-03-29T18:32:03.791Z,95465.38
2023-03-29T18:34:33.636Z,95464.38
2023-03-29T18:37:04.451Z,95464.56
2023-03-29T18:39:35.005Z,95471.84
2023-03-29T18:42:04.093Z,95464.94
2023-03-29T18:44:33.588Z,95461.69
2023-03-29T18:47:02.623Z,95462.13
2023-03-29T18:49:32.591Z,95462.75
2023-03-29T18:52:02.320Z,95464.38
2023-03-29T18:54:33.321Z,95459.91
2023-03-29T18:57:02.555Z,95455.03
2023-03-29T18:59:31.662Z,95463.50
2023-03-29T19:02:00.703Z,95462.31
2023-03-29T19:04:30.379Z,95465.38
2023-03-29T19:07:01.653Z,95465.13
2023-03-29T19:09:31.168Z,95467.19
2023-03-29T19:12:01.641Z,95464.94
2023-03-29T19:14:30.829Z,95462.69
2023-03-29T19:16:59.865Z,95454.97
2023-03-29T19:19:29.446Z,95458.84
2023-03-29T19:22:00.516Z,95448.13
2023-03-29T19:24:30.392Z,95451.16
2023-03-29T19:27:02.022Z,95456.63
2023-03-29T19:29:31.219Z,95459.47
2023-03-29T19:32:00.421Z,95455.22
2023-03-29T19:34:30.681Z,95462.13
2023-03-29T19:37:01.156Z,95452.59
2023-03-29T19:39:30.776Z,95453.22
2023-03-29T19:42:01.376Z,95449.78
2023-03-29T19:44:30.656Z,95451.00
2023-03-29T19:46:59.854Z,95450.78
2023-03-29T19:49:29.554Z,95460.28
2023-03-29T19:51:59.662Z,95464.56
2023-03-29T19:54:28.776Z,95459.88
2023-03-29T19:56:58.214Z,95466.75
2023-03-29T19:59:29.081Z,95464.56
2023-03-29T20:01:58.330Z,95458.25
2023-03-29T20:04:28.995Z,95463.94
2023-03-29T20:06:58.923Z,95471.25
2023-03-29T20:09:28.115Z,95464.75
2023-03-29T20:11:57.432Z,95467.19
2023-03-29T20:14:28.003Z,95467.19
2023-03-29T20:16:57.150Z,95472.25
2023-03-29T20:19:27.052Z,95465.56
2023-03-29T20:21:57.982Z,95458.28
2023-03-29T20:24:27.559Z,95467.19
2023-03-29T20:26:57.786Z,95464.16
2023-03-29T20:29:28.360Z,95470.22
2023-03-29T20:31:58.466Z,95473.66
2023-03-29T20:34:27.946Z,95460.91
2023-03-29T20:37:01.657Z,95461.31
2023-03-29T20:39:33.383Z,95464.56
2023-03-29T20:42:02.529Z,95460.28
2023-03-29T20:44:35.225Z,95465.53
2023-03-29T20:47:05.375Z,95462.88
2023-03-29T20:49:38.950Z,95457.00
2023-03-29T20:52:11.494Z,95456.19
2023-03-29T20:54:40.780Z,95459.81
2023-03-29T20:57:14.287Z,95456.53
2023-03-29T20:59:45.584Z,95459.75
2023-03-29T21:02:16.808Z,95462.94
2023-03-29T21:04:46.403Z,95462.09
2023-03-29T21:07:17.330Z,95458.69
2023-03-29T21:09:47.455Z,95452.41
2023-03-29T21:12:16.953Z,95455.88
2023-03-29T21:14:47.655Z,95454.84
2023-03-29T21:17:16.779Z,95458.88
2023-03-29T21:19:46.452Z,95460.09
2023-03-29T21:22:15.619Z,95460.13
2023-03-29T21:24:44.566Z,95460.34
2023-03-29T21:27:13.661Z,95459.31
2023-03-29T21:29:42.601Z,95451.22
2023-03-29T21:32:13.033Z,95454.03
2023-03-29T21:34:42.233Z,95447.78
2023-03-29T21:37:13.377Z,95448.41
2023-03-29T21:39:44.841Z,95457.50
2023-03-29T21:42:14.139Z,95456.31
2023-03-29T21:44:43.244Z,95451.06
2023-03-29T21:47:13.725Z,95451.44
2023-03-29T21:49:43.140Z,95457.13
2023-03-29T21:52:12.831Z,95439.53
2023-03-29T21:54:41.944Z,95451.28
2023-03-29T21:57:10.985Z,95440.56
2023-03-29T21:59:41.466Z,95446.66
2023-03-29T22:02:10.560Z,95445.28
2023-03-29T22:04:41.677Z,95452.56
2023-03-29T22:07:11.012Z,95453.97
2023-03-29T22:09:41.649Z,95455.19
2023-03-29T22:12:12.304Z,95447.09
2023-03-29T22:14:41.382Z,95446.53
2023-03-29T22:17:11.614Z,95448.53
2023-03-29T22:19:43.658Z,95453.41
2023-03-29T22:22:15.626Z,95460.09
2023-03-29T22:24:45.810Z,95448.16
2023-03-29T22:27:14.843Z,95446.94
2023-03-29T22:29:43.868Z,95452.81
2023-03-29T22:32:13.055Z,95457.66
2023-03-29T22:34:43.608Z,95442.88
2023-03-29T22:37:12.642Z,95454.59
2023-03-29T22:39:41.654Z,95451.78
2023-03-29T22:42:11.058Z,95454.78
2023-03-29T22:44:39.965Z,95452.75
2023-03-29T22:47:09.166Z,95449.31
2023-03-29T22:49:38.349Z,95444.03
2023-03-29T22:52:09.082Z,95451.88
2023-03-29T22:54:38.366Z,95449.22
2023-03-29T22:57:07.440Z,95444.16
2023-03-29T22:59:36.741Z,95445.59
2023-03-29T23:02:06.031Z,95434.25
2023-03-29T23:04:36.820Z,95436.28
2023-03-29T23:07:06.783Z,95442.72
2023-03-29T23:09:37.794Z,95440.34
2023-03-29T23:12:07.400Z,95436.50
2023-03-29T23:14:36.415Z,95434.28
2023-03-29T23:17:05.357Z,95426.75
2023-03-29T23:19:34.581Z,95432.44
2023-03-29T23:22:03.589Z,95426.38
2023-03-29T23:24:33.650Z,95430.81
2023-03-29T23:27:05.274Z,95418.66
2023-03-29T23:29:34.733Z,95423.31
2023-03-29T23:32:03.678Z,95429.00
2023-03-29T23:34:33.444Z,95436.91
2023-03-29T23:37:02.395Z,95434.69
2023-03-29T23:39:32.579Z,95433.06
2023-03-29T23:42:04.201Z,95425.59
2023-03-29T23:44:35.966Z,95421.13
2023-03-29T23:47:05.674Z,95425.38
2023-03-29T23:49:34.741Z,95431.06
2023-03-29T23:52:03.904Z,95426.81
2023-03-29T23:54:33.009Z,95429.00
2023-03-29T23:57:02.177Z,95423.38
2023-03-29T23:59:31.421Z,95428.25
